Time;durP1;ratioP1;P1;durP2;ratioP2;P2;SDS_P1;SDS_P2;PMS_P1;PMS_P2;Temp;Humidity;BMP_temperature;BMP_pressure;BME280_temperature;BME280_humidity;BME280_pressure;Samples;Min_cycle;Max_cycle;Signal;HPM_P1;HPM_P2
2022/09/07 00:01:11;;;;;;;8.32;5.95;;;24.00;99.90;;;;;;5032305;28;20056;-73
2022/09/07 00:03:38;;;;;;;7.85;5.97;;;24.00;99.90;;;;;;5032734;28;20156;-72
2022/09/07 00:06:08;;;;;;;7.40;5.75;;;24.00;99.90;;;;;;5033552;28;20069;-71
2022/09/07 00:08:37;;;;;;;8.95;6.00;;;24.00;99.90;;;;;;5015859;28;20045;-72
2022/09/07 00:11:09;;;;;;;7.80;5.88;;;24.00;99.90;;;;;;5015862;28;20049;-71
2022/09/07 00:13:38;;;;;;;11.55;5.60;;;24.00;99.90;;;;;;5006672;28;20046;-71
2022/09/07 00:16:13;;;;;;;7.53;5.00;;;24.00;99.90;;;;;;5031879;28;20041;-71
2022/09/07 00:18:41;;;;;;;7.17;5.97;;;24.00;99.90;;;;;;5016088;28;20038;-72
2022/09/07 00:21:13;;;;;;;6.50;5.03;;;24.10;99.90;;;;;;5016211;28;20365;-75
2022/09/07 00:23:40;;;;;;;6.55;4.40;;;24.10;99.90;;;;;;5033379;28;20080;-72
2022/09/07 00:26:12;;;;;;;7.85;4.93;;;24.10;99.90;;;;;;5015678;28;20057;-73
2022/09/07 00:28:41;;;;;;;6.00;4.20;;;24.10;99.90;;;;;;5048749;28;20383;-72
2022/09/07 00:31:19;;;;;;;7.80;4.78;;;24.10;99.90;;;;;;5032090;28;20047;-72
2022/09/07 00:33:48;;;;;;;6.63;4.10;;;24.10;99.90;;;;;;5031584;28;20065;-72
2022/09/07 00:36:16;;;;;;;7.00;4.68;;;24.20;99.90;;;;;;5032160;28;20176;-72
2022/09/07 00:38:44;;;;;;;5.03;3.58;;;24.10;99.90;;;;;;5033150;28;20053;-76
2022/09/07 00:41:12;;;;;;;6.07;4.32;;;24.10;99.90;;;;;;5015468;28;20140;-72
2022/09/07 00:43:46;;;;;;;10.57;4.22;;;24.10;99.90;;;;;;5031747;28;20050;-73
2022/09/07 00:46:21;;;;;;;6.43;3.70;;;24.10;99.90;;;;;;5015197;28;20988;-73
2022/09/07 00:49:09;;;;;;;6.57;4.60;;;24.10;99.90;;;;;;4999160;28;20144;-73
2022/09/07 00:51:51;;;;;;;5.25;3.70;;;24.00;99.90;;;;;;5031587;28;20119;-76
2022/09/07 00:54:26;;;;;;;6.20;3.80;;;24.00;99.90;;;;;;5032675;28;20046;-72
2022/09/07 00:56:54;;;;;;;5.53;3.70;;;24.00;99.90;;;;;;5015058;28;20349;-73
2022/09/07 00:59:29;;;;;;;6.95;3.72;;;23.90;99.90;;;;;;5031674;28;20053;-72
2022/09/07 01:01:57;;;;;;;7.50;4.60;;;23.90;99.90;;;;;;5014887;28;20063;-75
2022/09/07 01:04:25;;;;;;;7.10;4.50;;;24.00;99.90;;;;;;5048115;28;20054;-72
2022/09/07 01:06:54;;;;;;;5.45;4.10;;;24.00;99.90;;;;;;5032229;28;20052;-73
2022/09/07 01:09:23;;;;;;;6.95;4.43;;;24.00;99.90;;;;;;4998614;28;20053;-72
2022/09/07 01:11:53;;;;;;;5.63;4.20;;;24.00;99.90;;;;;;5031177;28;20042;-72
2022/09/07 01:14:25;;;;;;;6.95;4.47;;;23.90;99.90;;;;;;5031035;28;20157;-73
2022/09/07 01:17:05;;;;;;;6.95;4.10;;;23.90;99.90;;;;;;5031134;28;20583;-72
2022/09/07 01:20:04;;;;;;;5.53;3.70;;;23.90;99.90;;;;;;5030845;28;20049;-73
2022/09/07 01:23:10;;;;;;;4.97;3.53;;;23.90;99.90;;;;;;5014734;28;20091;-75
2022/09/07 01:26:12;;;;;;;4.20;3.60;;;23.90;99.90;;;;;;5047702;28;20140;-73
2022/09/07 01:28:41;;;;;;;6.53;3.85;;;23.90;99.90;;;;;;5031054;28;20144;-74
2022/09/07 01:31:28;;;;;;;5.35;3.60;;;23.90;99.90;;;;;;5031219;28;20068;-72
2022/09/07 01:34:21;;;;;;;6.10;4.47;;;24.00;99.90;;;;;;5030747;28;20081;-72
2022/09/07 01:37:10;;;;;;;5.25;4.13;;;24.00;99.90;;;;;;5030683;28;20481;-73
2022/09/07 01:40:09;;;;;;;5.35;4.07;;;24.00;99.90;;;;;;4998127;28;20049;-72
2022/09/07 01:42:48;;;;;;;6.57;3.85;;;24.00;99.90;;;;;;5030727;28;20096;-72
2022/09/07 01:45:21;;;;;;;4.60;3.58;;;24.00;99.90;;;;;;5030644;28;20041;-72
2022/09/07 01:47:54;;;;;;;7.35;3.97;;;24.00;99.90;;;;;;5030377;28;20038;-72
2022/09/07 01:50:27;;;;;;;5.65;4.20;;;24.00;99.90;;;;;;5030475;28;20057;-74
2022/09/07 01:53:10;;;;;;;5.20;3.72;;;24.00;99.90;;;;;;4997297;28;20571;-74
2022/09/07 01:56:07;;;;;;;5.70;4.07;;;23.90;99.90;;;;;;5030751;28;20049;-72
2022/09/07 01:58:35;;;;;;;;;;;23.90;99.90;;;;;;5031909;28;20049;-77
2022/09/07 02:01:10;;;;;;;7.78;5.15;;;24.00;99.90;;;;;;5031482;28;19925;-73
2022/09/07 02:03:50;;;;;;;4.65;3.92;;;24.00;99.90;;;;;;5029946;28;20430;-73
2022/09/07 02:06:45;;;;;;;5.80;4.43;;;24.00;99.90;;;;;;5036463;28;20483;-73
2022/09/07 02:09:20;;;;;;;6.90;4.65;;;24.00;99.90;;;;;;5013909;28;20049;-74
2022/09/07 02:11:49;;;;;;;8.10;4.57;;;24.00;99.90;;;;;;5029774;28;20480;-73
2022/09/07 02:14:43;;;;;;;5.88;4.47;;;24.00;99.90;;;;;;5029848;28;20484;-76
2022/09/07 02:17:15;;;;;;;6.65;4.32;;;24.00;99.90;;;;;;5029916;28;20622;-73
2022/09/07 02:19:53;;;;;;;6.25;3.95;;;24.00;99.90;;;;;;5013261;28;20049;-72
2022/09/07 02:22:26;;;;;;;7.50;4.03;;;23.90;99.90;;;;;;5002966;28;20052;-72
2022/09/07 02:24:58;;;;;;;6.72;4.40;;;23.90;99.90;;;;;;5029223;28;20045;-72
2022/09/07 02:27:55;;;;;;;7.68;4.65;;;23.90;99.90;;;;;;4997596;28;20534;-72
2022/09/07 02:30:23;;;;;;;6.88;4.57;;;23.90;99.90;;;;;;5027174;28;20493;-72
2022/09/07 02:32:50;;;;;;;6.85;4.57;;;23.80;99.90;;;;;;5030693;28;20136;-74
2022/09/07 02:35:18;;;;;;;5.47;4.50;;;23.90;99.90;;;;;;5013265;28;20072;-73
2022/09/07 02:37:47;;;;;;;6.53;4.82;;;23.90;99.90;;;;;;5029051;28;20060;-73
2022/09/07 02:40:15;;;;;;;6.15;4.05;;;23.90;99.90;;;;;;5029500;28;20041;-73
2022/09/07 02:42:44;;;;;;;6.63;4.20;;;23.80;99.90;;;;;;5013130;28;20041;-72
2022/09/07 02:45:13;;;;;;;6.03;4.47;;;23.80;99.90;;;;;;4997017;28;20081;-74
2022/09/07 02:48:11;;;;;;;7.78;5.30;;;23.80;99.90;;;;;;5029194;28;20489;-78
2022/09/07 02:51:13;;;;;;;6.85;5.07;;;23.80;99.90;;;;;;5029647;28;20043;-72
2022/09/07 02:54:18;;;;;;;7.55;4.85;;;23.70;99.90;;;;;;5010091;28;20054;-72
2022/09/07 02:57:15;;;;;;;6.07;4.95;;;23.70;99.90;;;;;;5029254;28;20041;-73
2022/09/07 03:00:09;;;;;;;8.85;4.90;;;23.70;99.90;;;;;;5048369;28;20053;-74
2022/09/07 03:03:14;;;;;;;7.35;4.97;;;23.60;99.90;;;;;;5022548;28;20395;-73
2022/09/07 03:05:50;;;;;;;8.18;5.47;;;23.60;99.90;;;;;;5028456;28;20053;-78
2022/09/07 03:08:24;;;;;;;7.43;4.80;;;23.60;99.90;;;;;;5030479;28;20056;-72
2022/09/07 03:10:52;;;;;;;7.90;6.07;;;23.60;99.90;;;;;;4996777;28;20080;-73
2022/09/07 03:13:25;;;;;;;9.82;5.82;;;23.60;99.90;;;;;;4996696;28;20042;-72
2022/09/07 03:15:53;;;;;;;7.53;5.85;;;23.50;99.90;;;;;;5029136;28;20547;-73
2022/09/07 03:18:23;;;;;;;7.03;5.28;;;23.50;99.90;;;;;;5030332;28;20048;-72
2022/09/07 03:20:51;;;;;;;8.68;6.68;;;23.60;99.90;;;;;;5012875;28;20053;-72
2022/09/07 03:23:18;;;;;;;8.10;6.22;;;23.50;99.90;;;;;;5028863;28;20083;-74
2022/09/07 03:25:49;;;;;;;7.40;6.00;;;23.60;99.90;;;;;;5028668;28;20045;-73
2022/09/07 03:28:17;;;;;;;8.48;6.07;;;23.50;99.90;;;;;;5029054;28;20104;-76
2022/09/07 03:30:48;;;;;;;8.13;6.10;;;23.50;99.90;;;;;;5029035;28;20072;-73
2022/09/07 03:33:16;;;;;;;8.95;6.72;;;23.50;99.90;;;;;;5012868;28;20073;-73
2022/09/07 03:35:58;;;;;;;8.57;6.50;;;23.60;99.90;;;;;;5028739;28;20594;-73
2022/09/07 03:38:25;;;;;;;8.57;6.05;;;23.60;99.90;;;;;;5012569;28;20065;-72
2022/09/07 03:41:05;;;;;;;11.80;7.05;;;23.50;99.90;;;;;;5029302;28;20057;-73
2022/09/07 03:43:33;;;;;;;9.77;6.65;;;23.60;99.90;;;;;;4996613;28;20454;-73
2022/09/07 03:46:03;;;;;;;11.40;7.43;;;23.60;99.90;;;;;;5012059;28;20958;-73
2022/09/07 03:48:32;;;;;;;9.27;6.38;;;23.50;99.90;;;;;;5042505;28;20072;-72
2022/09/07 03:51:02;;;;;;;8.70;6.05;;;23.50;99.90;;;;;;5048937;28;20041;-72
2022/09/07 03:53:35;;;;;;;10.90;7.22;;;23.50;99.90;;;;;;5048624;28;20040;-74
2022/09/07 03:56:10;;;;;;;8.82;6.75;;;23.50;99.90;;;;;;5048760;28;20430;-73
2022/09/07 03:58:39;;;;;;;10.67;7.10;;;23.50;99.90;;;;;;5016058;28;20380;-73
2022/09/07 04:01:09;;;;;;;9.57;7.57;;;23.50;99.90;;;;;;5032020;28;20136;-73
2022/09/07 04:03:38;;;;;;;9.25;6.75;;;23.50;99.90;;;;;;5032351;28;20514;-72
2022/09/07 04:06:06;;;;;;;11.38;7.70;;;23.40;99.90;;;;;;5032238;28;20041;-72
2022/09/07 04:08:36;;;;;;;9.77;7.70;;;23.50;99.90;;;;;;5032103;28;20131;-73
2022/09/07 04:11:06;;;;;;;14.45;7.47;;;23.40;99.90;;;;;;5032357;28;20057;-73
2022/09/07 04:13:35;;;;;;;10.52;7.07;;;23.40;99.90;;;;;;5049447;28;20048;-73
2022/09/07 04:16:18;;;;;;;12.80;7.15;;;23.40;99.90;;;;;;5033273;28;20864;-75
2022/09/07 04:18:49;;;;;;;8.25;6.25;;;23.30;99.90;;;;;;5052445;28;20037;-73
2022/09/07 04:21:17;;;;;;;16.70;7.35;;;23.30;99.90;;;;;;5035534;28;20096;-74
2022/09/07 04:23:45;;;;;;;10.30;7.68;;;23.30;99.90;;;;;;5035287;28;20079;-74
2022/09/07 04:26:14;;;;;;;11.60;7.82;;;23.30;99.90;;;;;;5035580;28;20127;-72
2022/09/07 04:28:41;;;;;;;11.60;8.10;;;23.30;99.90;;;;;;5019121;28;20045;-73
2022/09/07 04:31:09;;;;;;;10.52;7.80;;;23.20;99.90;;;;;;5035711;28;20144;-72
2022/09/07 04:33:36;;;;;;;10.77;7.90;;;23.20;99.90;;;;;;5035343;28;20079;-72
2022/09/07 04:36:04;;;;;;;13.68;7.47;;;23.20;99.90;;;;;;5042150;28;20915;-74
2022/09/07 04:38:32;;;;;;;10.77;8.23;;;23.20;99.90;;;;;;5015631;28;20069;-74
2022/09/07 04:41:02;;;;;;;9.52;7.57;;;23.20;99.90;;;;;;5032658;28;20049;-72
2022/09/07 04:43:29;;;;;;;10.77;7.70;;;23.20;99.90;;;;;;5015656;28;20049;-74
2022/09/07 04:46:00;;;;;;;10.23;7.80;;;23.30;99.90;;;;;;5032554;28;20053;-73
2022/09/07 04:48:28;;;;;;;11.85;8.32;;;23.30;99.90;;;;;;5015169;28;20037;-74
2022/09/07 04:51:02;;;;;;;11.50;7.32;;;23.40;99.90;;;;;;5015354;28;20056;-73
2022/09/07 04:53:36;;;;;;;10.90;8.27;;;23.40;99.90;;;;;;5032567;28;20044;-72
2022/09/07 04:56:04;;;;;;;11.77;7.63;;;23.50;99.90;;;;;;4998953;28;20083;-72
2022/09/07 04:58:32;;;;;;;9.20;7.15;;;23.60;99.90;;;;;;5031543;28;20055;-73
2022/09/07 05:01:05;;;;;;;12.38;7.82;;;23.70;99.90;;;;;;4998960;28;20053;-75
2022/09/07 05:03:35;;;;;;;10.18;6.90;;;23.70;99.90;;;;;;5014854;28;20465;-73
2022/09/07 05:06:05;;;;;;;10.00;8.68;;;23.90;99.90;;;;;;5030883;28;20488;-73
2022/09/07 05:08:41;;;;;;;9.77;7.30;;;24.10;99.90;;;;;;5031162;28;20120;-72
2022/09/07 05:11:11;;;;;;;12.82;7.90;;;24.20;99.90;;;;;;5015271;28;20064;-72
2022/09/07 05:13:39;;;;;;;12.95;7.53;;;24.40;99.90;;;;;;5031434;28;20496;-73
2022/09/07 05:16:19;;;;;;;12.25;7.43;;;24.50;99.90;;;;;;5031100;28;20148;-72
2022/09/07 05:18:56;;;;;;;10.77;7.35;;;24.70;99.90;;;;;;4998155;28;20364;-72
2022/09/07 05:21:27;;;;;;;8.95;6.30;;;24.80;99.90;;;;;;5031481;28;20970;-74
2022/09/07 05:23:56;;;;;;;12.13;7.40;;;25.00;99.90;;;;;;5014793;28;20438;-73
2022/09/07 05:26:26;;;;;;;11.25;7.47;;;25.10;99.90;;;;;;5032216;28;20058;-73
2022/09/07 05:28:54;;;;;;;11.30;7.25;;;25.30;99.90;;;;;;5013845;28;20718;-74
2022/09/07 05:31:42;;;;;;;9.43;7.68;;;25.40;99.90;;;;;;5017044;28;20037;-80
2022/09/07 05:34:09;;;;;;;10.80;7.82;;;25.60;99.90;;;;;;5030708;28;20049;-73
2022/09/07 05:36:57;;;;;;;12.93;7.70;;;25.80;99.90;;;;;;5013922;28;20056;-74
2022/09/07 05:39:25;;;;;;;11.70;7.50;;;26.00;99.90;;;;;;5030801;28;20042;-73
2022/09/07 05:41:53;;;;;;;12.40;8.18;;;26.10;99.90;;;;;;4997503;28;20136;-72
2022/09/07 05:44:21;;;;;;;10.00;7.72;;;26.30;99.90;;;;;;5031915;28;20049;-73
2022/09/07 05:47:09;;;;;;;11.48;7.75;;;26.40;99.90;;;;;;5030349;28;20042;-73
2022/09/07 05:49:37;;;;;;;10.73;7.88;;;26.50;99.90;;;;;;5014277;28;20092;-72
2022/09/07 05:52:05;;;;;;;11.43;9.23;;;26.70;99.90;;;;;;4997867;28;20053;-73
2022/09/07 05:54:32;;;;;;;12.73;9.63;;;26.80;99.90;;;;;;5013768;28;20049;-73
2022/09/07 05:57:02;;;;;;;11.75;8.20;;;26.90;99.90;;;;;;5031758;28;20582;-75
2022/09/07 05:59:29;;;;;;;12.88;9.70;;;27.00;99.90;;;;;;5014080;28;20061;-74
2022/09/07 06:01:58;;;;;;;11.77;8.48;;;27.10;99.90;;;;;;5013613;28;20048;-73
2022/09/07 06:04:26;;;;;;;13.45;9.80;;;27.20;99.90;;;;;;4997897;28;20061;-73
2022/09/07 06:06:53;;;;;;;12.25;8.70;;;27.30;99.90;;;;;;5013409;28;20049;-74
2022/09/07 06:09:41;;;;;;;12.25;9.80;;;27.50;99.90;;;;;;5030274;28;20045;-73
2022/09/07 06:12:29;;;;;;;12.35;9.82;;;27.60;99.90;;;;;;5030047;28;20123;-73
2022/09/07 06:14:56;;;;;;;15.32;10.13;;;27.60;99.90;;;;;;5030975;28;20042;-72
2022/09/07 06:17:24;;;;;;;16.63;12.13;;;27.70;99.90;;;;;;5029845;28;20051;-74
2022/09/07 06:19:51;;;;;;;21.55;14.52;;;27.60;99.90;;;;;;4997392;28;20115;-73
2022/09/07 06:22:19;;;;;;;23.02;13.43;;;27.60;99.90;;;;;;5049769;28;20033;-73
2022/09/07 06:24:47;;;;;;;17.55;13.35;;;27.70;99.90;;;;;;5033137;28;20053;-73
2022/09/07 06:27:15;;;;;;;16.30;13.25;;;27.80;99.90;;;;;;5049782;28;20048;-72
2022/09/07 06:29:42;;;;;;;18.48;14.48;;;27.90;99.90;;;;;;5049253;28;20037;-75
2022/09/07 06:32:10;;;;;;;14.88;11.48;;;28.10;99.90;;;;;;5050760;28;20051;-73
2022/09/07 06:34:58;;;;;;;18.85;14.25;;;28.00;99.90;;;;;;5032743;28;20140;-73
2022/09/07 06:37:26;;;;;;;14.32;11.15;;;28.10;99.90;;;;;;5033108;28;20065;-72
2022/09/07 06:39:53;;;;;;;14.57;10.55;;;28.20;99.90;;;;;;5032654;28;20055;-74
2022/09/07 06:42:21;;;;;;;14.48;10.57;;;28.30;99.90;;;;;;5032854;28;20051;-73
2022/09/07 06:44:52;;;;;;;14.60;11.05;;;28.30;99.90;;;;;;5032854;28;20049;-73
2022/09/07 06:47:20;;;;;;;12.10;9.77;;;28.50;99.90;;;;;;5049512;28;20040;-73
2022/09/07 06:49:47;;;;;;;12.75;8.40;;;28.60;99.90;;;;;;5032535;28;20511;-72
2022/09/07 06:52:15;;;;;;;15.30;9.55;;;28.70;99.90;;;;;;5050560;28;20578;-73
2022/09/07 06:54:42;;;;;;;15.63;9.82;;;28.80;99.90;;;;;;5049094;28;20389;-73
2022/09/07 06:57:26;;;;;;;13.45;9.88;;;28.90;99.90;;;;;;5048364;28;20127;-72
2022/09/07 06:59:54;;;;;;;11.35;9.07;;;29.10;99.80;;;;;;5049139;28;20037;-73
2022/09/07 07:02:21;;;;;;;11.48;8.75;;;29.10;98.80;;;;;;5049528;28;20052;-74
2022/09/07 07:04:49;;;;;;;9.50;7.88;;;29.10;98.80;;;;;;5032852;28;20064;-73
2022/09/07 07:07:16;;;;;;;10.30;8.05;;;29.20;98.40;;;;;;5048998;28;20045;-73
2022/09/07 07:09:44;;;;;;;11.90;9.60;;;29.10;98.20;;;;;;5030039;28;20396;-72
2022/09/07 07:12:12;;;;;;;13.15;7.78;;;29.20;97.80;;;;;;5032572;28;20075;-78
2022/09/07 07:14:39;;;;;;;9.70;7.65;;;29.30;97.40;;;;;;5049010;28;20037;-73
2022/09/07 07:17:08;;;;;;;10.73;8.15;;;29.40;97.00;;;;;;5032812;28;20079;-73
2022/09/07 07:19:36;;;;;;;11.30;7.65;;;29.50;96.20;;;;;;5048999;28;20057;-74
2022/09/07 07:22:04;;;;;;;11.82;7.97;;;29.60;96.20;;;;;;5048797;28;20930;-76
2022/09/07 07:24:44;;;;;;;10.43;7.35;;;29.60;96.60;;;;;;5049104;28;20048;-74
2022/09/07 07:27:12;;;;;;;10.50;8.60;;;29.70;96.70;;;;;;5032860;28;20064;-72
2022/09/07 07:29:40;;;;;;;8.85;7.13;;;29.90;96.10;;;;;;5032556;28;20179;-72
2022/09/07 07:32:07;;;;;;;8.60;7.05;;;29.80;96.20;;;;;;5048772;28;20449;-73
2022/09/07 07:34:35;;;;;;;9.68;7.53;;;29.70;96.20;;;;;;5032423;28;20053;-73
2022/09/07 07:37:03;;;;;;;9.73;7.70;;;29.90;95.90;;;;;;5048695;28;20063;-73
2022/09/07 07:39:30;;;;;;;10.35;7.03;;;30.00;95.80;;;;;;5032572;28;20407;-73
2022/09/07 07:42:18;;;;;;;8.23;6.65;;;30.10;95.20;;;;;;5049113;28;20033;-74
2022/09/07 07:44:47;;;;;;;9.77;7.40;;;30.00;94.50;;;;;;5050036;28;20380;-77
2022/09/07 07:47:14;;;;;;;9.80;7.35;;;30.10;94.10;;;;;;5048951;28;20083;-73
2022/09/07 07:49:42;;;;;;;9.05;6.47;;;30.30;94.30;;;;;;5049664;28;20391;-80
2022/09/07 07:52:09;;;;;;;10.00;7.03;;;30.30;94.00;;;;;;5052412;28;20048;-74
2022/09/07 07:54:57;;;;;;;9.65;7.20;;;30.50;93.50;;;;;;5052655;28;20063;-73
2022/09/07 07:57:24;;;;;;;9.38;6.72;;;30.70;93.20;;;;;;5036162;28;20143;-73
2022/09/07 07:59:52;;;;;;;7.60;6.00;;;30.80;93.10;;;;;;5035886;28;20041;-72
2022/09/07 08:02:20;;;;;;;9.73;6.95;;;30.90;92.90;;;;;;5036672;28;20072;-73
2022/09/07 08:04:48;;;;;;;8.40;6.20;;;30.90;92.90;;;;;;5052315;28;20084;-75
2022/09/07 08:07:16;;;;;;;7.80;6.40;;;30.90;93.00;;;;;;5033250;28;20053;-73
2022/09/07 08:09:46;;;;;;;8.77;6.53;;;30.80;93.30;;;;;;5015214;28;20092;-74
2022/09/07 08:12:19;;;;;;;8.85;6.90;;;30.80;93.80;;;;;;5032822;28;20053;-73
2022/09/07 08:14:47;;;;;;;9.75;7.00;;;30.70;93.60;;;;;;5016424;28;20045;-73
2022/09/07 08:17:16;;;;;;;9.23;7.03;;;30.70;93.70;;;;;;5032564;28;20061;-74
2022/09/07 08:19:44;;;;;;;8.98;6.80;;;30.80;93.40;;;;;;5015912;28;20161;-75
2022/09/07 08:22:12;;;;;;;6.95;6.03;;;30.60;93.10;;;;;;5000019;28;20056;-73
2022/09/07 08:24:39;;;;;;;8.38;6.15;;;30.40;92.80;;;;;;5032381;28;20049;-74
2022/09/07 08:27:08;;;;;;;8.23;5.57;;;30.30;92.40;;;;;;5015914;28;20080;-74
2022/09/07 08:29:35;;;;;;;9.45;7.00;;;30.20;92.80;;;;;;5033161;28;20099;-78
2022/09/07 08:32:05;;;;;;;7.85;6.05;;;30.30;93.00;;;;;;4999247;28;20517;-74
2022/09/07 08:34:35;;;;;;;9.30;6.32;;;30.40;93.10;;;;;;5033491;28;20037;-72
2022/09/07 08:37:03;;;;;;;16.17;7.82;;;30.50;92.80;;;;;;5015690;28;20130;-73
2022/09/07 08:39:31;;;;;;;8.25;6.38;;;30.60;92.70;;;;;;5033158;28;20049;-73
2022/09/07 08:42:23;;;;;;;9.40;6.68;;;30.50;92.50;;;;;;5015241;28;20049;-76
2022/09/07 08:45:05;;;;;;;8.00;6.30;;;30.40;92.60;;;;;;4999284;28;20455;-76
2022/09/07 08:47:46;;;;;;;9.20;6.30;;;30.30;92.30;;;;;;5031975;28;20117;-73
2022/09/07 08:50:29;;;;;;;7.07;6.07;;;30.40;92.20;;;;;;5015432;28;20044;-72
2022/09/07 08:52:58;;;;;;;8.20;6.47;;;30.50;91.60;;;;;;5015538;28;20048;-72
2022/09/07 08:55:33;;;;;;;8.18;6.28;;;30.40;91.10;;;;;;5031749;28;20053;-72
2022/09/07 08:58:13;;;;;;;8.25;6.45;;;30.60;91.10;;;;;;5031348;28;20053;-74
2022/09/07 09:00:48;;;;;;;9.90;6.75;;;30.60;90.80;;;;;;4999896;28;20092;-72
2022/09/07 09:03:21;;;;;;;8.80;6.95;;;30.80;90.60;;;;;;5014047;28;20052;-73
2022/09/07 09:06:14;;;;;;;7.68;5.78;;;31.00;90.50;;;;;;5022550;28;20049;-73
2022/09/07 09:08:48;;;;;;;;;;;31.00;89.60;;;;;;5031835;28;20037;-78
2022/09/07 09:11:25;;;;;;;11.13;7.75;;;30.50;90.40;;;;;;5015150;28;20408;-73
2022/09/07 09:14:31;;;;;;;7.68;5.68;;;30.70;90.40;;;;;;5014607;28;20107;-76
2022/09/07 09:17:06;;;;;;;8.88;6.60;;;31.00;89.60;;;;;;5011418;28;20049;-73
2022/09/07 09:20:06;;;;;;;10.05;6.13;;;31.10;89.50;;;;;;5015227;28;20057;-78
2022/09/07 09:22:34;;;;;;;8.52;6.15;;;31.20;90.10;;;;;;5031248;28;20782;-76
2022/09/07 09:25:45;;;;;;;7.95;6.38;;;31.40;90.80;;;;;;5032506;28;20041;-72
2022/09/07 09:28:13;;;;;;;8.27;5.75;;;31.40;90.30;;;;;;5013190;28;20045;-73
2022/09/07 09:30:41;;;;;;;8.45;5.95;;;31.50;90.30;;;;;;5031113;28;20046;-72
2022/09/07 09:33:21;;;;;;;8.73;6.75;;;31.40;90.10;;;;;;5030912;28;20171;-73
2022/09/07 09:35:54;;;;;;;9.98;6.97;;;31.40;89.80;;;;;;5014132;28;20041;-72
2022/09/07 09:38:35;;;;;;;7.53;5.95;;;31.50;89.50;;;;;;5030533;28;20484;-72
2022/09/07 09:41:13;;;;;;;9.00;6.35;;;31.50;89.60;;;;;;5031992;28;20128;-72
2022/09/07 09:43:45;;;;;;;8.80;5.93;;;31.50;89.40;;;;;;5030682;28;20833;-72
2022/09/07 09:46:32;;;;;;;9.52;7.18;;;31.50;89.70;;;;;;5014448;28;20057;-74
2022/09/07 09:49:05;;;;;;;7.90;6.68;;;31.60;89.70;;;;;;5014266;28;20053;-72
2022/09/07 09:51:41;;;;;;;11.45;7.00;;;31.20;90.00;;;;;;5030731;28;20129;-72
2022/09/07 09:54:42;;;;;;;7.30;6.32;;;31.20;89.20;;;;;;5030665;28;20045;-76
2022/09/07 09:57:34;;;;;;;7.60;5.80;;;31.20;88.80;;;;;;5006627;28;20057;-74
2022/09/07 10:00:03;;;;;;;7.78;6.05;;;31.40;88.60;;;;;;5030263;28;20077;-72
2022/09/07 10:02:38;;;;;;;10.93;7.18;;;31.40;88.40;;;;;;5030687;28;20053;-71
2022/09/07 10:05:27;;;;;;;7.63;6.55;;;31.50;89.00;;;;;;5030471;28;20091;-72
2022/09/07 10:07:55;;;;;;;7.88;6.20;;;31.70;88.10;;;;;;4997421;28;20037;-73
2022/09/07 10:10:25;;;;;;;6.80;5.30;;;31.70;88.20;;;;;;4997723;28;20045;-72
2022/09/07 10:12:54;;;;;;;9.05;6.85;;;31.80;87.20;;;;;;5031309;28;20046;-73
2022/09/07 10:15:34;;;;;;;8.70;6.22;;;31.80;85.40;;;;;;5013699;28;20055;-72
2022/09/07 10:18:14;;;;;;;7.68;5.22;;;31.90;85.80;;;;;;5013768;28;20037;-72
2022/09/07 10:20:42;;;;;;;6.38;5.38;;;31.80;84.50;;;;;;5029920;28;20520;-73
2022/09/07 10:23:22;;;;;;;9.25;6.50;;;31.90;85.50;;;;;;5029840;28;20072;-72
2022/09/07 10:25:50;;;;;;;8.80;6.53;;;31.80;86.00;;;;;;5029737;28;20048;-72
2022/09/07 10:28:23;;;;;;;9.23;6.35;;;31.80;86.10;;;;;;5030943;28;20111;-73
2022/09/07 10:31:07;;;;;;;7.88;5.70;;;31.90;86.10;;;;;;5013559;28;20085;-72
2022/09/07 10:34:00;;;;;;;8.55;5.80;;;31.80;83.80;;;;;;5014076;28;20124;-72
2022/09/07 10:36:50;;;;;;;8.60;5.85;;;31.90;84.20;;;;;;5029344;28;20055;-72
2022/09/07 10:39:25;;;;;;;8.80;6.40;;;32.00;84.10;;;;;;5029680;28;20069;-72
2022/09/07 10:41:56;;;;;;;9.70;7.03;;;32.10;85.70;;;;;;5029658;28;20483;-72
2022/09/07 10:44:59;;;;;;;9.55;6.25;;;32.20;86.70;;;;;;5013781;28;20053;-72
2022/09/07 10:47:27;;;;;;;8.10;6.05;;;32.20;85.70;;;;;;5013256;28;20682;-74
2022/09/07 10:49:58;;;;;;;8.95;6.40;;;32.40;83.80;;;;;;5031367;28;20037;-72
2022/09/07 10:53:02;;;;;;;7.18;5.15;;;32.30;82.60;;;;;;5049788;28;20045;-76
2022/09/07 10:55:42;;;;;;;8.40;6.28;;;31.80;83.00;;;;;;5033888;28;20041;-72
2022/09/07 10:58:13;;;;;;;9.23;6.70;;;31.90;84.00;;;;;;5016678;28;20433;-72
2022/09/07 11:01:19;;;;;;;7.47;5.88;;;32.00;84.60;;;;;;5032887;28;20147;-72
2022/09/07 11:04:03;;;;;;;8.52;6.20;;;32.00;83.70;;;;;;5048645;28;20053;-72
2022/09/07 11:06:39;;;;;;;11.27;6.57;;;32.10;83.00;;;;;;5049167;28;20045;-72
2022/09/07 11:09:16;;;;;;;9.82;5.72;;;32.20;83.00;;;;;;5049689;28;20033;-72
2022/09/07 11:11:48;;;;;;;9.95;6.95;;;32.20;82.30;;;;;;5049182;28;20045;-72
2022/09/07 11:14:56;;;;;;;7.75;6.32;;;32.20;83.80;;;;;;5049004;28;20102;-73
2022/09/07 11:17:27;;;;;;;9.63;7.18;;;32.20;84.50;;;;;;5032515;28;20647;-72
2022/09/07 11:20:22;;;;;;;8.80;6.35;;;32.10;84.20;;;;;;5032843;28;20049;-72
2022/09/07 11:23:27;;;;;;;9.70;6.75;;;32.00;83.80;;;;;;5049372;28;20121;-79
2022/09/07 11:26:10;;;;;;;9.18;6.53;;;31.90;84.10;;;;;;5047280;28;20049;-73
2022/09/07 11:28:37;;;;;;;10.10;6.72;;;31.80;85.00;;;;;;5037359;28;20045;-73
2022/09/07 11:31:22;;;;;;;11.57;7.35;;;31.80;84.80;;;;;;5020213;28;20047;-73
2022/09/07 11:34:24;;;;;;;10.68;6.85;;;31.50;84.60;;;;;;5036298;28;20057;-72
2022/09/07 11:37:01;;;;;;;10.20;6.88;;;31.60;84.80;;;;;;5051261;28;20048;-72
2022/09/07 11:39:44;;;;;;;9.32;7.30;;;31.70;84.40;;;;;;5036061;28;20506;-71
2022/09/07 11:42:33;;;;;;;11.07;6.70;;;31.70;84.50;;;;;;5020506;28;20052;-72
2022/09/07 11:45:21;;;;;;;8.95;7.25;;;31.80;84.40;;;;;;5053465;28;20057;-72
2022/09/07 11:48:00;;;;;;;12.75;7.05;;;31.80;84.50;;;;;;5052498;28;20502;-72
2022/09/07 11:50:37;;;;;;;7.97;6.82;;;31.70;84.40;;;;;;5050065;28;20094;-74
2022/09/07 11:53:20;;;;;;;10.93;6.70;;;31.60;85.80;;;;;;5054156;28;20044;-73
2022/09/07 11:55:55;;;;;;;9.55;6.57;;;31.60;83.90;;;;;;5053725;28;20047;-72
2022/09/07 11:58:59;;;;;;;7.30;5.93;;;31.60;83.60;;;;;;5052864;28;20094;-72
2022/09/07 12:02:09;;;;;;;11.32;7.32;;;31.50;83.90;;;;;;5052683;28;20037;-78
2022/09/07 12:04:42;;;;;;;9.90;7.72;;;31.40;85.30;;;;;;5036254;28;20055;-73
2022/09/07 12:07:48;;;;;;;10.40;7.43;;;31.30;86.00;;;;;;5052477;28;20135;-74
2022/09/07 12:10:28;;;;;;;12.30;8.85;;;31.30;87.30;;;;;;5052653;28;20553;-73
2022/09/07 12:13:07;;;;;;;11.60;8.02;;;31.30;87.70;;;;;;5052419;28;20044;-71
2022/09/07 12:16:06;;;;;;;11.68;7.50;;;31.40;86.70;;;;;;5035666;28;20056;-72
2022/09/07 12:18:52;;;;;;;12.65;8.35;;;31.40;90.00;;;;;;5052366;28;20045;-72
2022/09/07 12:21:42;;;;;;;16.00;9.68;;;31.40;90.50;;;;;;5035675;28;20049;-76
2022/09/07 12:24:50;;;;;;;8.82;7.63;;;31.50;90.50;;;;;;5036194;28;20131;-72
2022/09/07 12:27:21;;;;;;;11.40;8.57;;;31.50;90.40;;;;;;5032551;28;20041;-72
2022/09/07 12:30:09;;;;;;;10.30;8.43;;;31.40;91.10;;;;;;5019233;28;20060;-73
2022/09/07 12:32:46;;;;;;;11.63;7.95;;;31.30;91.30;;;;;;5050376;28;20033;-71
2022/09/07 12:35:30;;;;;;;10.95;7.75;;;31.30;91.30;;;;;;5032625;28;20075;-76
2022/09/07 12:38:05;;;;;;;10.05;7.03;;;31.20;91.40;;;;;;5048747;28;20132;-71
2022/09/07 12:40:33;;;;;;;9.20;6.32;;;31.10;91.90;;;;;;5032575;28;20049;-78
2022/09/07 12:43:13;;;;;;;10.25;7.38;;;31.00;92.20;;;;;;5049305;28;20095;-72
2022/09/07 12:45:41;;;;;;;11.27;7.18;;;30.90;92.30;;;;;;5031994;28;20052;-73
2022/09/07 12:48:16;;;;;;;11.10;7.97;;;30.90;93.20;;;;;;5029349;28;20135;-72
2022/09/07 12:50:59;;;;;;;10.52;7.63;;;30.80;93.30;;;;;;5013755;28;20049;-74
2022/09/07 12:53:35;;;;;;;10.73;7.97;;;30.70;93.40;;;;;;5029170;28;20057;-75
2022/09/07 12:56:18;;;;;;;12.77;9.48;;;30.70;93.30;;;;;;4995953;28;20056;-73
2022/09/07 12:59:19;;;;;;;14.30;8.75;;;30.60;93.10;;;;;;4996698;28;20968;-72
2022/09/07 13:01:54;;;;;;;20.13;14.55;;;30.60;92.70;;;;;;5030429;28;20410;-77
2022/09/07 13:04:34;;;;;;;10.60;8.45;;;30.60;92.50;;;;;;5030307;28;20045;-74
2022/09/07 13:07:56;;;;;;;28.13;22.80;;;30.60;93.10;;;;;;5013485;28;20049;-72
2022/09/07 13:10:40;;;;;;;14.88;11.27;;;30.60;93.10;;;;;;5010687;28;20081;-73
2022/09/07 13:13:13;;;;;;;57.25;44.28;;;30.60;93.00;;;;;;5017953;28;20052;-74
2022/09/07 13:15:45;;;;;;;16.95;11.00;;;30.50;92.60;;;;;;5030380;28;20553;-72
2022/09/07 13:18:27;;;;;;;10.73;8.77;;;30.50;92.80;;;;;;5026652;28;20115;-72
2022/09/07 13:21:07;;;;;;;11.15;7.25;;;30.50;92.80;;;;;;5031089;28;20114;-72
2022/09/07 13:24:05;;;;;;;10.73;7.65;;;30.50;92.60;;;;;;5029004;28;20052;-72
2022/09/07 13:27:30;;;;;;;8.43;6.55;;;30.50;92.80;;;;;;5021136;28;20045;-72
2022/09/07 13:30:25;;;;;;;10.35;7.25;;;30.50;92.50;;;;;;5036109;28;20053;-73